Time;durP1;ratioP1;P1;durP2;ratioP2;P2;SDS_P1;SDS_P2;PMS_P1;PMS_P2;Temp;Humidity;BMP_temperature;BMP_pressure;BME280_temperature;BME280_humidity;BME280_pressure;Samples;Min_cycle;Max_cycle;Signal;HPM_P1;HPM_P2
2021/05/20 00:00:20;;;;;;;0.40;0.40;;;22.10;52.40;;;;;;5113262;27;20065;-39
2021/05/20 00:02:48;;;;;;;0.55;0.32;;;22.10;52.40;;;;;;5113548;28;20100;-40
2021/05/20 00:05:16;;;;;;;0.40;0.38;;;22.10;52.40;;;;;;5112994;28;20399;-40
2021/05/20 00:07:46;;;;;;;0.40;0.40;;;22.10;52.40;;;;;;5112819;27;20044;-40
2021/05/20 00:10:16;;;;;;;0.75;0.40;;;22.10;52.40;;;;;;5114007;28;20039;-40
2021/05/20 00:12:45;;;;;;;1.30;0.55;;;22.10;52.40;;;;;;5111573;28;20047;-42
2021/05/20 00:15:14;;;;;;;0.45;0.35;;;22.10;52.40;;;;;;5112851;28;20048;-40
2021/05/20 00:17:43;;;;;;;0.80;0.47;;;22.10;52.40;;;;;;5112441;28;20598;-42
2021/05/20 00:20:10;;;;;;;0.68;0.40;;;22.10;52.40;;;;;;5112151;28;20518;-40
2021/05/20 00:22:38;;;;;;;0.70;0.40;;;22.10;52.40;;;;;;5113279;28;20048;-40
2021/05/20 00:25:05;;;;;;;0.43;0.38;;;22.10;52.40;;;;;;5112123;27;20495;-40
2021/05/20 00:27:32;;;;;;;0.40;0.30;;;22.10;52.40;;;;;;5112982;28;20408;-39
2021/05/20 00:30:00;;;;;;;0.40;0.40;;;22.10;52.40;;;;;;5113184;28;20047;-39
2021/05/20 00:32:27;;;;;;;0.65;0.60;;;22.10;52.40;;;;;;5111075;27;20048;-40
2021/05/20 00:34:55;;;;;;;0.57;0.43;;;22.10;52.40;;;;;;5112935;28;20043;-39
2021/05/20 00:37:22;;;;;;;0.40;0.40;;;22.10;52.40;;;;;;5111659;28;20210;-40
2021/05/20 00:39:49;;;;;;;0.75;0.40;;;22.10;52.40;;;;;;5113392;27;20457;-40
2021/05/20 00:42:16;;;;;;;1.05;0.40;;;22.10;52.40;;;;;;5112709;28;20051;-40
2021/05/20 00:44:58;;;;;;;0.52;0.40;;;22.10;52.40;;;;;;5111086;27;20517;-39
2021/05/20 00:47:30;;;;;;;0.65;0.40;;;22.10;52.40;;;;;;5112798;28;20086;-40
2021/05/20 00:49:58;;;;;;;0.35;0.22;;;22.10;52.40;;;;;;5112405;28;20051;-39
2021/05/20 00:52:25;;;;;;;0.35;0.35;;;22.10;52.40;;;;;;5111621;27;20111;-41
2021/05/20 00:54:59;;;;;;;0.30;0.30;;;22.10;52.40;;;;;;5112300;28;20094;-39
2021/05/20 00:57:26;;;;;;;0.60;0.50;;;22.10;52.40;;;;;;5099547;28;20043;-39
2021/05/20 00:59:54;;;;;;;0.30;0.30;;;22.10;52.40;;;;;;5112128;28;20035;-39
2021/05/20 01:02:22;;;;;;;0.35;0.35;;;22.10;52.40;;;;;;5111533;28;20457;-41
2021/05/20 01:04:50;;;;;;;0.60;0.50;;;22.10;52.40;;;;;;5110982;28;20123;-39
2021/05/20 01:07:17;;;;;;;0.60;0.30;;;22.10;52.30;;;;;;5102544;28;20128;-39
2021/05/20 01:09:44;;;;;;;0.47;0.40;;;22.10;52.40;;;;;;5111461;28;20511;-41
2021/05/20 01:12:12;;;;;;;0.60;0.40;;;22.10;52.40;;;;;;5110052;28;20043;-40
2021/05/20 01:14:42;;;;;;;0.70;0.40;;;22.10;52.40;;;;;;5111958;28;20055;-39
2021/05/20 01:17:11;;;;;;;0.57;0.43;;;22.10;52.40;;;;;;5082955;28;20047;-39
2021/05/20 01:19:44;;;;;;;0.40;0.30;;;22.10;52.40;;;;;;5112181;28;20063;-40
2021/05/20 01:22:12;;;;;;;0.30;0.30;;;22.10;52.40;;;;;;5111849;28;20134;-42
2021/05/20 01:24:40;;;;;;;0.60;0.35;;;22.10;52.40;;;;;;5084065;28;20184;-40
2021/05/20 01:27:09;;;;;;;0.50;0.30;;;22.10;52.40;;;;;;5111853;28;20047;-41
2021/05/20 01:29:39;;;;;;;0.38;0.38;;;22.10;52.40;;;;;;5110576;28;20051;-41
2021/05/20 01:32:07;;;;;;;0.50;0.40;;;22.10;52.40;;;;;;5100417;28;20066;-42
2021/05/20 01:34:36;;;;;;;0.35;0.30;;;22.10;52.40;;;;;;5111868;28;20135;-41
2021/05/20 01:37:06;;;;;;;0.40;0.40;;;22.10;52.40;;;;;;5109925;28;20059;-41
2021/05/20 01:39:35;;;;;;;0.55;0.40;;;22.10;52.40;;;;;;5111920;28;20043;-41
2021/05/20 01:42:02;;;;;;;0.52;0.38;;;22.10;52.40;;;;;;5110008;28;20537;-40
2021/05/20 01:44:29;;;;;;;0.60;0.30;;;22.10;52.40;;;;;;5111503;28;20158;-40
2021/05/20 01:46:56;;;;;;;0.70;0.50;;;22.10;52.40;;;;;;5111331;28;20047;-40
2021/05/20 01:49:23;;;;;;;0.60;0.47;;;22.10;52.40;;;;;;5110422;28;20047;-40
2021/05/20 01:51:51;;;;;;;0.60;0.40;;;22.10;52.40;;;;;;5112311;28;20050;-40
2021/05/20 01:54:18;;;;;;;0.30;0.30;;;22.10;52.40;;;;;;5110491;28;20050;-40
2021/05/20 01:56:45;;;;;;;0.60;0.45;;;22.10;52.40;;;;;;5109841;28;20578;-40
2021/05/20 01:59:12;;;;;;;0.40;0.30;;;22.10;52.40;;;;;;5111444;28;20059;-41
2021/05/20 02:01:41;;;;;;;1.05;0.50;;;22.10;52.40;;;;;;5111330;27;20062;-40
2021/05/20 02:04:08;;;;;;;0.75;0.30;;;22.10;52.40;;;;;;5110499;28;20047;-40
2021/05/20 02:06:36;;;;;;;0.30;0.30;;;22.10;52.40;;;;;;5110748;28;20130;-40
2021/05/20 02:09:05;;;;;;;0.60;0.40;;;22.10;52.40;;;;;;5098830;28;20047;-40
2021/05/20 02:11:32;;;;;;;0.40;0.40;;;22.10;52.40;;;;;;5110394;28;20054;-39
2021/05/20 02:13:59;;;;;;;0.30;0.30;;;22.10;52.40;;;;;;5109776;28;20043;-40
2021/05/20 02:16:26;;;;;;;0.65;0.40;;;22.10;52.40;;;;;;5109913;28;20404;-40
2021/05/20 02:18:53;;;;;;;0.50;0.40;;;22.10;52.40;;;;;;5111106;28;20054;-39
2021/05/20 02:21:21;;;;;;;0.50;0.35;;;22.10;52.40;;;;;;5109930;28;20109;-40
2021/05/20 02:23:48;;;;;;;0.45;0.35;;;22.10;52.40;;;;;;5101051;28;20078;-40
2021/05/20 02:26:15;;;;;;;0.50;0.50;;;22.10;52.40;;;;;;5110604;28;20035;-40
2021/05/20 02:28:43;;;;;;;0.40;0.30;;;22.10;52.40;;;;;;5110263;28;20039;-40
2021/05/20 02:31:11;;;;;;;0.30;0.30;;;22.10;52.40;;;;;;5110904;28;20048;-40
2021/05/20 02:33:39;;;;;;;0.30;0.30;;;22.10;52.40;;;;;;5108859;28;20554;-40
2021/05/20 02:36:08;;;;;;;0.50;0.40;;;22.10;52.40;;;;;;5111798;28;20043;-40
2021/05/20 02:38:35;;;;;;;0.40;0.35;;;22.10;52.40;;;;;;5110602;28;20079;-40
2021/05/20 02:41:03;;;;;;;0.30;0.30;;;22.10;52.40;;;;;;5109359;28;20048;-40
2021/05/20 02:43:32;;;;;;;0.35;0.32;;;22.10;52.40;;;;;;5111357;28;20052;-40
2021/05/20 02:46:03;;;;;;;0.52;0.40;;;22.10;52.40;;;;;;5108375;28;20039;-40
2021/05/20 02:48:30;;;;;;;0.45;0.43;;;22.10;52.40;;;;;;5110398;28;20069;-43
2021/05/20 02:50:57;;;;;;;0.60;0.40;;;22.10;52.40;;;;;;5110507;28;20153;-40
2021/05/20 02:53:25;;;;;;;0.50;0.38;;;22.10;52.40;;;;;;5109053;28;20436;-40
2021/05/20 02:55:52;;;;;;;0.40;0.40;;;22.10;52.40;;;;;;5110569;28;20162;-41
2021/05/20 02:58:21;;;;;;;0.57;0.50;;;22.10;52.40;;;;;;5110219;28;20047;-44
2021/05/20 03:00:48;;;;;;;0.20;0.20;;;22.10;52.40;;;;;;5110087;28;20048;-41
2021/05/20 03:03:16;;;;;;;0.35;0.35;;;22.10;52.40;;;;;;5099500;28;20054;-41
2021/05/20 03:05:43;;;;;;;0.50;0.40;;;22.10;52.40;;;;;;5108645;28;20047;-40
2021/05/20 03:08:12;;;;;;;0.40;0.40;;;22.10;52.40;;;;;;5110905;28;20063;-41
2021/05/20 03:10:40;;;;;;;0.63;0.50;;;22.10;52.40;;;;;;5113345;28;20047;-42
2021/05/20 03:13:07;;;;;;;0.30;0.30;;;22.10;52.40;;;;;;5113377;28;20175;-41
2021/05/20 03:15:34;;;;;;;0.40;0.40;;;22.10;52.40;;;;;;5114145;28;20449;-41
2021/05/20 03:18:01;;;;;;;0.45;0.32;;;22.10;52.40;;;;;;5112512;27;20499;-41
2021/05/20 03:20:28;;;;;;;0.30;0.30;;;22.10;52.40;;;;;;5104520;28;20484;-42
2021/05/20 03:22:56;;;;;;;0.32;0.30;;;22.10;52.40;;;;;;5113990;28;20058;-43
2021/05/20 03:25:23;;;;;;;0.20;0.20;;;22.10;52.40;;;;;;5113143;27;20047;-41
2021/05/20 03:27:50;;;;;;;0.45;0.30;;;22.00;52.30;;;;;;5114640;28;20047;-40
2021/05/20 03:30:18;;;;;;;0.68;0.40;;;22.10;52.40;;;;;;5112070;28;20487;-40
2021/05/20 03:32:45;;;;;;;0.50;0.40;;;22.10;52.40;;;;;;5114182;28;20047;-40
2021/05/20 03:35:13;;;;;;;0.68;0.47;;;22.10;52.40;;;;;;5113918;28;20048;-40
2021/05/20 03:37:41;;;;;;;0.68;0.50;;;22.10;52.40;;;;;;5114501;27;20406;-40
2021/05/20 03:40:08;;;;;;;0.22;0.22;;;22.10;52.40;;;;;;5114805;28;20047;-43
2021/05/20 03:42:36;;;;;;;0.43;0.35;;;22.10;52.40;;;;;;5113503;27;20055;-41
2021/05/20 03:45:07;;;;;;;0.30;0.30;;;22.10;52.40;;;;;;5113329;28;20130;-40
2021/05/20 03:47:35;;;;;;;0.57;0.50;;;22.10;52.40;;;;;;5114150;28;20043;-41
2021/05/20 03:50:03;;;;;;;0.30;0.30;;;22.10;52.40;;;;;;5113360;27;20056;-40
2021/05/20 03:52:30;;;;;;;0.40;0.20;;;22.10;52.40;;;;;;5113857;28;20122;-40
2021/05/20 03:54:58;;;;;;;0.73;0.40;;;22.00;52.30;;;;;;5112467;28;20040;-40
2021/05/20 03:57:25;;;;;;;0.50;0.35;;;22.10;52.40;;;;;;5113445;28;20049;-41
2021/05/20 03:59:53;;;;;;;0.40;0.30;;;22.10;52.40;;;;;;5113859;28;20396;-40
2021/05/20 04:02:20;;;;;;;0.98;0.47;;;22.10;52.40;;;;;;5112727;28;20044;-40
2021/05/20 04:04:47;;;;;;;0.45;0.45;;;22.00;52.30;;;;;;5113321;28;20377;-40
2021/05/20 04:07:15;;;;;;;0.28;0.28;;;22.10;52.40;;;;;;5112874;28;20526;-41
2021/05/20 04:09:42;;;;;;;0.30;0.30;;;22.10;52.40;;;;;;5112902;28;20506;-40
2021/05/20 04:12:09;;;;;;;0.50;0.40;;;22.00;52.40;;;;;;5113452;28;20040;-40
2021/05/20 04:14:37;;;;;;;0.52;0.35;;;22.10;52.40;;;;;;5110424;28;20050;-40
2021/05/20 04:17:04;;;;;;;0.38;0.35;;;22.10;52.40;;;;;;5113349;27;20043;-41
2021/05/20 04:19:31;;;;;;;0.40;0.40;;;22.10;52.40;;;;;;5112575;28;20043;-40
2021/05/20 04:21:59;;;;;;;0.43;0.40;;;22.10;52.40;;;;;;5111536;28;20044;-40
2021/05/20 04:24:27;;;;;;;0.57;0.50;;;22.00;52.40;;;;;;5113589;28;20047;-40
2021/05/20 04:26:55;;;;;;;0.40;0.40;;;22.10;52.40;;;;;;5111880;28;20039;-40
2021/05/20 04:29:22;;;;;;;0.50;0.30;;;22.00;52.30;;;;;;5112241;28;20050;-40
2021/05/20 04:31:49;;;;;;;0.40;0.40;;;22.10;52.40;;;;;;5112889;28;20552;-40
2021/05/20 04:34:18;;;;;;;0.55;0.40;;;22.10;52.40;;;;;;5100415;28;20047;-39
2021/05/20 04:36:50;;;;;;;0.40;0.30;;;22.10;52.40;;;;;;5113087;28;20043;-39
2021/05/20 04:39:17;;;;;;;0.63;0.43;;;22.00;52.40;;;;;;5111159;28;20047;-39
2021/05/20 04:41:44;;;;;;;0.30;0.30;;;22.00;52.40;;;;;;5113436;27;20054;-41
2021/05/20 04:44:11;;;;;;;0.30;0.30;;;22.00;52.30;;;;;;5101472;28;20052;-39
2021/05/20 04:46:38;;;;;;;0.43;0.40;;;22.00;52.30;;;;;;5111480;28;20043;-40
2021/05/20 04:49:11;;;;;;;0.32;0.32;;;22.00;52.30;;;;;;5113149;28;20046;-40
2021/05/20 04:51:42;;;;;;;0.68;0.40;;;22.00;52.40;;;;;;5112368;28;20097;-40
2021/05/20 04:54:10;;;;;;;0.35;0.35;;;22.10;52.40;;;;;;5111662;27;20044;-39
2021/05/20 04:56:38;;;;;;;0.57;0.40;;;22.10;53.00;;;;;;5102068;28;20048;-41
2021/05/20 04:59:05;;;;;;;0.50;0.40;;;22.10;52.40;;;;;;5111237;27;20047;-41
2021/05/20 05:01:33;;;;;;;0.20;0.20;;;22.00;52.30;;;;;;5112452;27;20081;-41
2021/05/20 05:04:01;;;;;;;0.30;0.30;;;22.00;52.30;;;;;;5112488;28;20052;-40
2021/05/20 05:06:29;;;;;;;0.40;0.40;;;22.00;52.30;;;;;;5110621;28;20075;-42
2021/05/20 05:08:56;;;;;;;0.40;0.40;;;22.10;52.40;;;;;;5112750;28;20039;-41
2021/05/20 05:11:23;;;;;;;0.38;0.32;;;22.10;52.40;;;;;;5111514;27;20461;-40
2021/05/20 05:13:51;;;;;;;0.38;0.30;;;22.00;52.30;;;;;;5111255;28;20054;-40
2021/05/20 05:16:18;;;;;;;0.30;0.30;;;22.10;52.40;;;;;;5111376;28;20052;-41
2021/05/20 05:18:45;;;;;;;0.38;0.30;;;22.00;52.30;;;;;;5100915;28;20449;-42
2021/05/20 05:21:12;;;;;;;0.30;0.30;;;22.10;52.40;;;;;;5101986;28;20050;-39
2021/05/20 05:23:40;;;;;;;0.40;0.32;;;22.10;52.40;;;;;;5098312;28;20101;-40
2021/05/20 05:26:07;;;;;;;0.52;0.50;;;22.10;52.40;;;;;;5110594;28;20526;-40
2021/05/20 05:28:35;;;;;;;0.50;0.40;;;22.10;52.40;;;;;;5111705;28;20044;-40
2021/05/20 05:31:02;;;;;;;0.68;0.38;;;22.10;52.40;;;;;;5110144;28;20495;-39
2021/05/20 05:33:30;;;;;;;0.73;0.40;;;22.00;52.30;;;;;;5111907;28;20039;-41
2021/05/20 05:35:57;;;;;;;0.70;0.40;;;22.00;52.30;;;;;;5111577;28;20075;-41
2021/05/20 05:38:24;;;;;;;0.50;0.32;;;22.10;52.40;;;;;;5111420;28;20051;-43
2021/05/20 05:40:51;;;;;;;0.40;0.32;;;22.10;52.40;;;;;;5111972;28;20120;-40
2021/05/20 05:43:18;;;;;;;0.45;0.32;;;22.10;52.40;;;;;;5110646;27;20047;-41
2021/05/20 05:45:45;;;;;;;0.30;0.30;;;22.10;52.40;;;;;;5111553;28;20048;-40
2021/05/20 05:48:13;;;;;;;0.30;0.30;;;22.10;52.40;;;;;;5110743;28;20135;-40
2021/05/20 05:50:41;;;;;;;0.30;0.30;;;22.00;52.30;;;;;;5111135;27;20061;-41
2021/05/20 05:53:26;;;;;;;0.30;0.30;;;22.10;53.00;;;;;;5112589;27;20047;-40
2021/05/20 05:55:53;;;;;;;0.40;0.40;;;22.10;52.40;;;;;;5107847;28;20046;-40
2021/05/20 05:58:21;;;;;;;1.20;0.38;;;22.10;52.40;;;;;;5111062;27;20047;-41
2021/05/20 06:00:48;;;;;;;0.45;0.40;;;22.10;52.40;;;;;;5111125;28;20047;-42
2021/05/20 06:03:15;;;;;;;0.40;0.40;;;22.10;52.40;;;;;;5110149;28;20048;-47
2021/05/20 06:05:47;;;;;;;0.65;0.57;;;22.10;52.40;;;;;;5111224;28;20056;-41
2021/05/20 06:08:14;;;;;;;0.47;0.40;;;22.10;52.40;;;;;;5109896;28;20047;-41
2021/05/20 06:10:42;;;;;;;0.40;0.40;;;22.10;52.40;;;;;;5109255;28;20506;-43
2021/05/20 06:13:10;;;;;;;0.22;0.22;;;22.10;52.40;;;;;;5110356;28;20039;-40
2021/05/20 06:15:38;;;;;;;0.40;0.40;;;22.10;53.00;;;;;;5109592;27;20066;-43
2021/05/20 06:18:05;;;;;;;0.70;0.52;;;22.10;52.40;;;;;;5110879;28;20047;-41
2021/05/20 06:20:33;;;;;;;0.50;0.40;;;22.10;52.40;;;;;;5109708;28;20048;-40
2021/05/20 06:23:00;;;;;;;0.30;0.30;;;22.10;52.40;;;;;;5110565;28;20494;-40
2021/05/20 06:25:29;;;;;;;0.57;0.30;;;22.10;52.40;;;;;;5099736;28;20043;-40
2021/05/20 06:27:56;;;;;;;0.50;0.40;;;22.10;52.40;;;;;;5108967;28;20047;-46
2021/05/20 06:30:23;;;;;;;0.75;0.28;;;22.10;52.50;;;;;;5110579;28;20134;-44
2021/05/20 06:32:50;;;;;;;1.48;0.50;;;22.10;52.50;;;;;;5110097;28;20086;-41
2021/05/20 06:35:17;;;;;;;0.50;0.40;;;22.10;52.40;;;;;;5109560;28;20388;-45
2021/05/20 06:37:45;;;;;;;1.88;0.38;;;22.10;52.40;;;;;;5110641;28;20560;-42
2021/05/20 06:40:12;;;;;;;0.43;0.32;;;22.10;52.40;;;;;;5109650;28;20060;-41
2021/05/20 06:42:39;;;;;;;0.73;0.40;;;22.10;52.40;;;;;;5110630;28;20047;-41
2021/05/20 06:45:07;;;;;;;0.30;0.30;;;22.10;52.50;;;;;;5116977;28;20051;-43
2021/05/20 06:47:34;;;;;;;0.38;0.30;;;22.10;52.50;;;;;;5099496;28;20495;-40
2021/05/20 06:50:02;;;;;;;0.50;0.43;;;22.10;52.50;;;;;;5117072;27;20457;-41
2021/05/20 06:52:30;;;;;;;0.25;0.22;;;22.10;52.50;;;;;;5117367;27;20047;-41
2021/05/20 06:54:57;;;;;;;0.68;0.30;;;22.10;52.50;;;;;;5116466;27;20057;-42
2021/05/20 06:57:31;;;;;;;0.50;0.50;;;22.10;52.60;;;;;;5117578;28;20053;-41
2021/05/20 07:00:02;;;;;;;0.85;0.30;;;22.10;52.50;;;;;;5116161;27;20047;-44
2021/05/20 07:02:31;;;;;;;1.08;0.35;;;22.10;52.50;;;;;;5117429;27;20506;-40
2021/05/20 07:04:58;;;;;;;0.30;0.30;;;22.10;52.50;;;;;;5117793;27;20410;-45
2021/05/20 07:07:26;;;;;;;0.52;0.35;;;22.10;52.50;;;;;;5116278;27;20043;-46
2021/05/20 07:09:54;;;;;;;0.75;0.40;;;22.10;52.50;;;;;;5117868;28;20383;-42
2021/05/20 07:12:21;;;;;;;0.40;0.30;;;22.20;52.70;;;;;;5116085;28;20047;-41
2021/05/20 07:14:48;;;;;;;0.60;0.60;;;22.10;52.60;;;;;;5116212;27;20046;-41
2021/05/20 07:17:15;;;;;;;0.30;0.30;;;22.10;52.60;;;;;;5116905;28;20167;-43
2021/05/20 07:19:43;;;;;;;0.90;0.40;;;22.10;52.60;;;;;;5115884;27;20501;-42
2021/05/20 07:22:10;;;;;;;0.38;0.38;;;22.10;52.60;;;;;;5118070;27;20047;-41
2021/05/20 07:24:37;;;;;;;0.80;0.40;;;22.10;52.60;;;;;;5116451;27;20056;-40
2021/05/20 07:27:05;;;;;;;0.95;0.40;;;22.10;52.60;;;;;;5116121;27;20047;-41
2021/05/20 07:29:32;;;;;;;0.68;0.40;;;22.10;52.60;;;;;;5116991;28;20055;-40
2021/05/20 07:31:59;;;;;;;0.43;0.43;;;22.20;52.60;;;;;;5104878;28;20036;-41
2021/05/20 07:34:26;;;;;;;0.95;0.50;;;22.10;52.60;;;;;;5117093;27;20051;-41
2021/05/20 07:36:54;;;;;;;2.45;0.50;;;22.20;52.70;;;;;;5103102;28;20047;-39
2021/05/20 07:39:21;;;;;;;0.65;0.40;;;22.10;52.60;;;;;;5116278;28;20700;-40
2021/05/20 07:41:48;;;;;;;0.50;0.40;;;22.20;52.70;;;;;;5117387;28;20047;-39
2021/05/20 07:44:15;;;;;;;0.40;0.40;;;22.20;52.70;;;;;;5115696;27;20407;-41
2021/05/20 07:46:43;;;;;;;0.43;0.35;;;22.20;52.60;;;;;;5116842;27;23848;-39
2021/05/20 07:49:11;;;;;;;0.57;0.40;;;22.20;52.70;;;;;;5116566;28;20051;-40
2021/05/20 07:51:38;;;;;;;0.45;0.35;;;22.20;52.70;;;;;;5115487;27;20046;-41
2021/05/20 07:54:06;;;;;;;0.35;0.35;;;22.20;52.70;;;;;;5117117;28;20052;-39
2021/05/20 07:56:34;;;;;;;0.50;0.30;;;22.20;52.60;;;;;;5111519;28;20388;-42
2021/05/20 07:59:02;;;;;;;0.75;0.40;;;22.20;52.60;;;;;;5113655;28;20051;-41
2021/05/20 08:01:31;;;;;;;0.43;0.40;;;22.20;52.70;;;;;;5112976;28;20047;-40
2021/05/20 08:04:08;;;;;;;0.40;0.38;;;22.20;52.60;;;;;;5112008;28;20054;-40
2021/05/20 08:09:15;;;;;;;0.38;0.38;;;22.20;52.60;;;;;;5112691;28;20047;-41
2021/05/20 08:11:43;;;;;;;0.55;0.40;;;22.20;52.60;;;;;;5112410;28;20051;-40
2021/05/20 08:14:10;;;;;;;0.60;0.47;;;22.20;52.60;;;;;;5113173;28;20043;-40
2021/05/20 08:16:37;;;;;;;0.30;0.30;;;22.20;52.60;;;;;;5111914;27;20069;-39
2021/05/20 08:19:04;;;;;;;0.63;0.40;;;22.20;52.60;;;;;;5103873;28;20090;-40
2021/05/20 08:21:32;;;;;;;0.50;0.40;;;22.20;52.60;;;;;;5112348;28;20055;-40
2021/05/20 08:23:59;;;;;;;0.65;0.50;;;22.20;52.70;;;;;;5111790;28;20047;-40
2021/05/20 08:26:27;;;;;;;0.50;0.50;;;22.20;52.60;;;;;;5113774;28;20051;-42
2021/05/20 08:28:55;;;;;;;0.30;0.30;;;22.20;52.60;;;;;;5110747;27;20040;-39
2021/05/20 08:31:22;;;;;;;0.80;0.52;;;22.20;52.70;;;;;;5112626;28;20051;-40
2021/05/20 08:33:49;;;;;;;0.80;0.50;;;22.20;52.60;;;;;;5112498;28;20142;-39
2021/05/20 08:36:16;;;;;;;0.70;0.40;;;22.20;52.60;;;;;;5113206;27;20055;-41
2021/05/20 08:38:43;;;;;;;0.93;0.43;;;22.20;52.60;;;;;;5112826;27;20051;-40
2021/05/20 08:41:16;;;;;;;1.15;0.50;;;22.20;52.60;;;;;;5112475;27;20392;-41
2021/05/20 08:43:43;;;;;;;0.52;0.50;;;22.20;52.60;;;;;;5112124;28;20055;-40
2021/05/20 08:46:10;;;;;;;0.40;0.40;;;22.30;52.70;;;;;;5112804;28;20047;-40
2021/05/20 08:48:37;;;;;;;0.60;0.40;;;22.20;52.60;;;;;;5099901;28;20043;-41
2021/05/20 08:51:05;;;;;;;0.50;0.40;;;22.20;52.60;;;;;;5112788;28;24557;-40
2021/05/20 08:53:33;;;;;;;0.50;0.40;;;22.20;52.60;;;;;;5111822;28;20050;-44
2021/05/20 08:56:00;;;;;;;0.50;0.30;;;22.20;52.70;;;;;;5111181;28;20044;-40
2021/05/20 08:58:27;;;;;;;0.57;0.52;;;22.20;52.60;;;;;;5112459;28;20054;-40
2021/05/20 09:00:56;;;;;;;0.70;0.40;;;22.20;52.60;;;;;;5099581;28;20062;-39
2021/05/20 09:03:23;;;;;;;1.38;0.50;;;22.20;52.70;;;;;;5102690;28;20047;-41
2021/05/20 09:05:50;;;;;;;0.57;0.50;;;22.20;52.60;;;;;;5111481;28;20112;-43
2021/05/20 09:08:22;;;;;;;0.50;0.50;;;22.30;52.70;;;;;;5100888;28;20044;-42
2021/05/20 09:10:49;;;;;;;0.63;0.55;;;22.20;52.60;;;;;;5112409;28;20111;-40
2021/05/20 09:13:19;;;;;;;0.40;0.30;;;22.20;52.60;;;;;;5110261;28;20082;-39
2021/05/20 09:15:51;;;;;;;0.57;0.40;;;22.20;52.60;;;;;;5111177;28;20083;-40
2021/05/20 09:18:24;;;;;;;0.65;0.30;;;22.20;53.20;;;;;;5111941;28;20050;-41
2021/05/20 09:20:52;;;;;;;0.60;0.55;;;22.20;52.60;;;;;;5110223;28;20054;-41
2021/05/20 09:23:22;;;;;;;0.45;0.40;;;22.20;52.60;;;;;;5112197;28;20051;-40
2021/05/20 09:25:51;;;;;;;0.50;0.40;;;22.20;52.60;;;;;;5111242;28;20044;-39
2021/05/20 09:28:33;;;;;;;0.55;0.40;;;22.20;52.60;;;;;;5110534;28;20394;-40
2021/05/20 09:31:00;;;;;;;0.93;0.38;;;22.30;52.70;;;;;;5112448;28;20445;-43
2021/05/20 09:33:27;;;;;;;0.50;0.50;;;22.20;52.60;;;;;;5096635;28;20055;-41
2021/05/20 09:35:54;;;;;;;0.55;0.45;;;22.30;52.70;;;;;;5111956;28;20039;-43
2021/05/20 09:38:23;;;;;;;0.77;0.40;;;22.30;52.60;;;;;;5111928;28;20134;-41
2021/05/20 09:40:56;;;;;;;0.75;0.50;;;22.30;52.60;;;;;;5110002;28;20047;-41
2021/05/20 09:43:29;;;;;;;0.50;0.50;;;22.30;52.60;;;;;;5111982;28;20063;-39
2021/05/20 09:45:59;;;;;;;0.80;0.60;;;22.30;52.60;;;;;;5112025;28;20598;-42
2021/05/20 09:48:34;;;;;;;0.57;0.45;;;22.30;52.60;;;;;;5110879;27;20036;-41
2021/05/20 09:51:01;;;;;;;0.50;0.50;;;22.30;52.60;;;;;;5112202;28;20048;-42
2021/05/20 09:53:44;;;;;;;0.77;0.60;;;22.30;52.60;;;;;;5110236;28;20048;-40
2021/05/20 09:56:12;;;;;;;0.30;0.30;;;22.30;52.60;;;;;;5111723;27;20480;-41
2021/05/20 09:58:39;;;;;;;0.38;0.38;;;22.30;52.50;;;;;;5111324;28;20043;-40
2021/05/20 10:01:18;;;;;;;0.85;0.40;;;22.30;52.60;;;;;;5110582;28;20445;-42
2021/05/20 10:03:54;;;;;;;0.73;0.50;;;22.30;52.50;;;;;;5111708;28;20040;-41
2021/05/20 10:06:39;;;;;;;0.68;0.40;;;22.30;52.50;;;;;;5111224;28;20406;-39
2021/05/20 10:09:12;;;;;;;0.30;0.30;;;22.30;52.50;;;;;;5109791;28;20050;-39
2021/05/20 10:11:42;;;;;;;1.48;0.40;;;22.30;52.50;;;;;;5110712;28;20101;-43
2021/05/20 10:14:09;;;;;;;0.40;0.32;;;22.30;52.50;;;;;;5109392;28;20039;-42
2021/05/20 10:16:40;;;;;;;0.40;0.40;;;22.30;52.50;;;;;;5109370;28;20051;-40
2021/05/20 10:19:07;;;;;;;0.40;0.40;;;22.30;52.50;;;;;;5110291;28;20061;-40
2021/05/20 10:21:35;;;;;;;0.38;0.30;;;22.30;52.40;;;;;;5109801;28;20051;-40
2021/05/20 10:24:06;;;;;;;0.98;0.60;;;22.30;52.40;;;;;;5111307;28;20047;-43
2021/05/20 10:26:40;;;;;;;0.30;0.30;;;22.30;52.30;;;;;;5110258;28;20047;-39
2021/05/20 10:29:08;;;;;;;0.50;0.50;;;22.30;52.90;;;;;;5109302;28;20064;-41
2021/05/20 10:31:40;;;;;;;0.80;0.55;;;22.30;52.30;;;;;;5111432;28;20045;-42
2021/05/20 10:34:07;;;;;;;0.60;0.50;;;22.30;52.30;;;;;;5109381;28;20043;-39
2021/05/20 10:36:38;;;;;;;0.55;0.40;;;22.30;52.30;;;;;;5109958;28;20135;-39
2021/05/20 10:39:22;;;;;;;0.68;0.47;;;22.30;52.30;;;;;;5110817;28;20466;-42
2021/05/20 10:41:50;;;;;;;2.00;0.60;;;22.30;52.30;;;;;;5108551;28;20526;-45
2021/05/20 10:44:19;;;;;;;3.45;0.50;;;22.30;52.20;;;;;;5110183;28;20047;-40
2021/05/20 10:47:08;;;;;;;1.75;0.70;;;22.30;52.30;;;;;;5110055;28;20093;-39
2021/05/20 10:49:50;;;;;;;4.93;0.80;;;22.30;52.30;;;;;;5109283;28;20442;-42
2021/05/20 10:52:38;;;;;;;3.95;1.10;;;22.30;52.30;;;;;;5111197;28;20051;-42
2021/05/20 10:55:08;;;;;;;7.13;0.90;;;22.30;52.20;;;;;;5110184;28;20043;-40
2021/05/20 10:58:01;;;;;;;25.58;2.17;;;22.30;51.90;;;;;;5108681;28;20552;-39
2021/05/20 11:00:36;;;;;;;16.38;2.78;;;22.30;51.20;;;;;;5100128;28;20039;-42
2021/05/20 11:03:04;;;;;;;13.73;2.28;;;22.30;50.80;;;;;;5110325;28;20487;-40
2021/05/20 11:05:40;;;;;;;15.70;2.40;;;22.30;50.40;;;;;;5109403;28;20043;-40
2021/05/20 11:08:31;;;;;;;23.90;2.92;;;22.30;50.10;;;;;;5110339;28;20051;-40
2021/05/20 11:11:01;;;;;;;19.30;2.63;;;22.30;49.90;;;;;;5092640;28;20055;-40
2021/05/20 11:13:45;;;;;;;15.68;2.40;;;22.30;49.60;;;;;;5108604;28;20092;-40
2021/05/20 11:16:27;;;;;;;19.25;2.80;;;22.30;49.30;;;;;;5110392;28;20059;-39
2021/05/20 11:19:23;;;;;;;14.48;2.92;;;22.20;48.70;;;;;;5110247;28;20055;-40
2021/05/20 11:22:03;;;;;;;11.68;2.35;;;22.20;48.50;;;;;;5108866;28;20051;-44
2021/05/20 11:24:34;;;;;;;12.80;2.00;;;22.30;48.20;;;;;;5110478;28;20040;-41
2021/05/20 11:27:16;;;;;;;13.07;2.20;;;22.20;48.00;;;;;;5110153;28;20157;-42
2021/05/20 11:29:47;;;;;;;12.85;1.90;;;22.20;47.80;;;;;;5109497;28;20067;-45
2021/05/20 11:35:03;;;;;;;15.57;2.30;;;22.20;47.50;;;;;;5113863;28;20054;-44
2021/05/20 11:37:40;;;;;;;9.13;1.63;;;22.20;47.50;;;;;;5113873;28;20469;-40
2021/05/20 11:40:27;;;;;;;7.63;1.42;;;22.20;47.50;;;;;;5114480;28;20055;-40
2021/05/20 11:42:55;;;;;;;17.08;1.80;;;22.20;47.40;;;;;;5113078;28;20415;-44
2021/05/20 11:45:25;;;;;;;6.68;1.55;;;22.10;47.50;;;;;;5113860;27;20411;-41
2021/05/20 11:47:53;;;;;;;8.38;2.00;;;22.10;47.50;;;;;;5103142;28;20052;-40
2021/05/20 11:50:24;;;;;;;6.38;1.55;;;22.10;47.60;;;;;;5112023;28;20510;-42
2021/05/20 11:52:54;;;;;;;11.77;1.77;;;22.20;47.80;;;;;;5113771;27;20040;-39
2021/05/20 11:55:23;;;;;;;8.82;1.67;;;22.20;47.80;;;;;;5113542;28;20048;-45
2021/05/20 11:58:01;;;;;;;13.40;2.00;;;22.10;48.50;;;;;;5112670;28;20408;-40
2021/05/20 12:00:28;;;;;;;6.70;1.60;;;22.20;48.00;;;;;;5113661;28;20058;-44
2021/05/20 12:02:57;;;;;;;8.50;1.67;;;22.20;48.10;;;;;;5112314;28;20045;-44
2021/05/20 12:05:25;;;;;;;5.35;1.27;;;22.20;48.20;;;;;;5112145;28;20048;-41
2021/05/20 12:08:19;;;;;;;7.43;1.65;;;22.20;48.30;;;;;;5113994;28;20044;-41
2021/05/20 12:10:53;;;;;;;10.13;2.35;;;22.20;48.40;;;;;;5111405;28;20055;-45
2021/05/20 12:13:21;;;;;;;6.25;1.60;;;22.20;48.50;;;;;;5112388;28;20035;-43
2021/05/20 12:15:48;;;;;;;14.02;2.03;;;22.20;48.50;;;;;;5112661;28;20051;-40
2021/05/20 12:18:17;;;;;;;8.55;1.67;;;22.20;48.50;;;;;;5112484;28;20043;-39
2021/05/20 12:20:47;;;;;;;4.85;1.80;;;22.20;48.60;;;;;;5112902;28;20077;-42
2021/05/20 12:23:16;;;;;;;7.50;1.63;;;22.20;48.60;;;;;;5112081;28;20131;-41
2021/05/20 12:25:44;;;;;;;7.85;1.55;;;22.20;48.70;;;;;;5111791;28;20513;-40
2021/05/20 12:28:11;;;;;;;9.38;2.00;;;22.20;48.70;;;;;;5112490;28;20047;-40
2021/05/20 12:30:41;;;;;;;14.75;1.80;;;22.20;48.90;;;;;;5111273;27;20055;-40
2021/05/20 12:33:09;;;;;;;10.65;1.75;;;22.30;49.00;;;;;;5113105;28;20099;-39
2021/05/20 12:35:37;;;;;;;5.28;1.67;;;22.20;49.00;;;;;;5111592;28;20044;-39
2021/05/20 12:38:20;;;;;;;9.57;1.73;;;22.20;49.00;;;;;;5111340;28;20575;-40
2021/05/20 12:40:54;;;;;;;12.10;2.00;;;22.20;49.10;;;;;;5112456;28;20052;-40
2021/05/20 12:43:21;;;;;;;;;;;22.20;49.10;;;;;;5111869;28;20093;-41
2021/05/20 12:46:02;;;;;;;12.60;1.80;;;22.20;49.10;;;;;;5111996;28;19920;-39
2021/05/20 12:48:37;;;;;;;11.98;1.60;;;22.20;49.20;;;;;;5112630;28;20043;-42
2021/05/20 12:51:21;;;;;;;4.63;1.88;;;22.20;49.30;;;;;;5110049;28;20066;-41
2021/05/20 12:53:53;;;;;;;6.18;1.80;;;22.20;49.40;;;;;;5111477;27;20043;-40
2021/05/20 12:56:21;;;;;;;6.03;1.83;;;22.20;49.40;;;;;;5100352;28;20067;-44
2021/05/20 12:58:53;;;;;;;8.43;1.75;;;22.20;49.50;;;;;;5110075;27;20044;-43
2021/05/20 13:01:22;;;;;;;8.25;1.52;;;22.20;49.50;;;;;;5111566;28;20499;-41